createdAt,value
2019-05-06T00:02:29.594Z,53.71
2019-05-06T00:05:03.990Z,54.03
2019-05-06T00:07:35.017Z,54.46
2019-05-06T00:10:08.947Z,54.47
2019-05-06T00:12:40.817Z,54.60
2019-05-06T00:15:14.468Z,54.63
2019-05-06T00:17:46.430Z,54.73
2019-05-06T00:20:18.352Z,54.93
2019-05-06T00:22:54.611Z,55.22
2019-05-06T00:25:37.417Z,55.20
2019-05-06T00:28:26.341Z,55.08
2019-05-06T00:31:10.404Z,54.56
2019-05-06T00:33:34.115Z,54.74
2019-05-06T00:36:06.398Z,54.65
2019-05-06T00:38:39.836Z,55.23
2019-05-06T00:49:34.579Z,55.57
2019-05-06T00:52:06.538Z,55.91
2019-05-06T00:54:38.644Z,55.85
2019-05-06T00:57:10.417Z,55.33
2019-05-06T01:12:25.062Z,55.75
2019-05-06T01:14:59.725Z,55.20
2019-05-06T01:17:33.799Z,54.94
2019-05-06T01:20:05.640Z,54.82
2019-05-06T01:22:37.735Z,55.02
2019-05-06T01:25:09.924Z,55.53
2019-05-06T01:27:44.278Z,55.89
2019-05-06T01:30:16.065Z,55.94
2019-05-06T01:32:48.042Z,55.89
2019-05-06T01:35:20.035Z,55.61
2019-05-06T01:38:10.921Z,55.50
2019-05-06T01:40:58.290Z,55.89
2019-05-06T01:43:34.562Z,56.01
2019-05-06T01:46:06.312Z,55.99
2019-05-06T01:48:50.615Z,55.86
2019-05-06T01:51:25.036Z,55.85
2019-05-06T01:53:57.307Z,55.63
2019-05-06T01:56:29.364Z,55.83
2019-05-06T01:59:01.545Z,56.20
2019-05-06T02:01:36.088Z,56.54
2019-05-06T02:04:09.114Z,56.58
2019-05-06T02:06:41.048Z,56.50
2019-05-06T02:09:20.144Z,56.69
2019-05-06T02:11:53.661Z,57.15
2019-05-06T02:14:25.569Z,57.31
2019-05-06T02:16:57.333Z,57.38
2019-05-06T02:19:29.442Z,57.68
2019-05-06T02:22:10.148Z,57.65
2019-05-06T02:25:01.220Z,57.50
2019-05-06T02:27:34.086Z,57.92
2019-05-06T02:30:16.967Z,58.08
2019-05-06T02:33:10.780Z,58.35
2019-05-06T02:36:00.397Z,58.33
2019-05-06T02:38:46.064Z,58.20
2019-05-06T02:41:07.629Z,58.34
2019-05-06T02:43:43.345Z,58.48
2019-05-06T02:46:14.361Z,58.58
2019-05-06T02:48:56.008Z,58.56
2019-05-06T02:51:29.397Z,58.47
2019-05-06T02:54:03.252Z,58.64
2019-05-06T02:56:34.948Z,58.75
2019-05-06T02:59:07.180Z,58.73
2019-05-06T03:01:39.389Z,58.72
2019-05-06T03:04:13.191Z,58.83
2019-05-06T03:06:45.147Z,58.96
2019-05-06T03:09:16.948Z,58.97
2019-05-06T03:11:53.983Z,58.86
2019-05-06T03:14:25.084Z,58.52
2019-05-06T03:16:58.216Z,58.25
2019-05-06T03:19:34.176Z,58.20
2019-05-06T03:22:19.138Z,58.21
2019-05-06T03:24:55.002Z,58.40
2019-05-06T03:27:27.160Z,57.81
2019-05-06T03:29:59.292Z,57.30
2019-05-06T03:32:37.563Z,57.38
2019-05-06T03:35:31.388Z,57.72
2019-05-06T03:37:44.036Z,57.74
2019-05-06T03:40:15.644Z,57.61
2019-05-06T03:42:47.510Z,57.80
2019-05-06T03:45:33.695Z,57.52
2019-05-06T03:48:12.817Z,56.97
2019-05-06T03:50:44.108Z,56.28
2019-05-06T03:53:16.793Z,55.70
2019-05-06T03:55:53.745Z,55.36
2019-05-06T03:58:26.764Z,55.38
2019-05-06T04:01:00.149Z,55.08
2019-05-06T04:03:44.041Z,54.66
2019-05-06T04:06:06.333Z,54.60
2019-05-06T04:08:38.844Z,54.51
2019-05-06T04:11:13.756Z,54.42
2019-05-06T04:13:48.119Z,54.36
2019-05-06T04:16:45.288Z,54.19
2019-05-06T04:19:25.979Z,54.01
2019-05-06T04:22:19.771Z,53.88
2019-05-06T04:25:17.329Z,53.72
2019-05-06T04:27:54.835Z,53.45
2019-05-06T04:30:26.667Z,53.46
2019-05-06T04:32:58.700Z,52.94
2019-05-06T04:35:33.564Z,52.70
2019-05-06T04:38:04.108Z,52.19
2019-05-06T04:40:36.399Z,51.92
2019-05-06T04:43:08.669Z,51.58
2019-05-06T04:45:43.323Z,51.48
2019-05-06T04:48:15.132Z,51.49
2019-05-06T04:50:47.238Z,51.25
2019-05-06T04:53:19.030Z,51.12
2019-05-06T04:55:53.656Z,51.21
2019-05-06T04:58:24.444Z,51.10
2019-05-06T05:00:57.020Z,50.56
2019-05-06T05:03:29.457Z,50.45
2019-05-06T05:06:02.984Z,50.03
2019-05-06T05:08:38.180Z,49.60
2019-05-06T05:11:28.841Z,49.43
2019-05-06T05:14:24.760Z,49.33
2019-05-06T05:16:58.666Z,48.61
2019-05-06T05:19:32.734Z,48.33
2019-05-06T05:22:07.930Z,47.79
2019-05-06T05:24:39.774Z,47.43
2019-05-06T05:27:12.602Z,46.99
2019-05-06T05:29:44.465Z,46.75
2019-05-06T05:32:16.277Z,46.44
2019-05-06T05:34:48.327Z,46.38
2019-05-06T05:37:22.824Z,46.30
2019-05-06T05:39:54.542Z,46.17
2019-05-06T05:42:35.912Z,46.38
2019-05-06T05:45:09.099Z,46.06
2019-05-06T05:47:42.523Z,45.39
2019-05-06T05:50:22.674Z,45.08
2019-05-06T05:52:54.224Z,44.95
2019-05-06T05:55:26.501Z,44.75
2019-05-06T05:57:59.121Z,44.63
2019-05-06T06:00:33.050Z,44.44
2019-05-06T06:03:07.194Z,44.51
2019-05-06T06:05:38.740Z,44.19
2019-05-06T06:08:10.472Z,43.83
2019-05-06T06:10:56.521Z,43.29
2019-05-06T06:13:28.360Z,42.66
2019-05-06T06:16:25.804Z,42.94
2019-05-06T06:19:12.594Z,42.39
2019-05-06T06:21:48.417Z,41.96
2019-05-06T06:24:27.826Z,41.85
2019-05-06T06:26:59.742Z,41.33
2019-05-06T06:29:32.405Z,41.59
2019-05-06T06:32:10.521Z,41.03
2019-05-06T06:35:14.698Z,40.55
2019-05-06T06:38:04.242Z,40.19
2019-05-06T06:40:36.191Z,40.24
2019-05-06T06:43:12.516Z,39.02
2019-05-06T06:45:44.567Z,38.47
2019-05-06T06:48:16.520Z,38.57
2019-05-06T06:50:52.274Z,38.41
2019-05-06T06:53:27.245Z,37.77
2019-05-06T06:56:22.024Z,37.89
2019-05-06T06:59:23.347Z,37.75
2019-05-06T07:02:14.079Z,36.79
2019-05-06T07:04:53.773Z,35.42
2019-05-06T07:07:40.219Z,35.40
2019-05-06T07:10:02.654Z,35.26
2019-05-06T07:12:34.251Z,34.77
2019-05-06T07:15:06.988Z,33.72
2019-05-06T07:17:38.731Z,33.10
2019-05-06T07:20:13.207Z,32.78
2019-05-06T07:22:45.601Z,32.95
2019-05-06T07:25:17.454Z,32.33
2019-05-06T07:27:49.320Z,32.42
2019-05-06T07:30:32.913Z,32.70
2019-05-06T07:33:05.754Z,32.28
2019-05-06T07:35:40.846Z,31.50
2019-05-06T07:38:11.975Z,32.20
2019-05-06T07:40:46.305Z,32.31
2019-05-06T07:43:35.837Z,31.90
2019-05-06T07:46:15.595Z,32.10
2019-05-06T07:48:47.584Z,31.32
2019-05-06T07:51:19.361Z,31.28
2019-05-06T07:53:52.432Z,31.33
2019-05-06T07:56:24.611Z,31.40
2019-05-06T07:59:08.072Z,31.29
2019-05-06T08:01:44.014Z,31.34
2019-05-06T08:04:15.447Z,31.15
2019-05-06T08:06:48.507Z,30.83
2019-05-06T08:09:22.141Z,30.55
2019-05-06T08:11:54.138Z,30.54
2019-05-06T08:14:43.070Z,30.27
2019-05-06T08:17:22.346Z,29.91
2019-05-06T08:19:54.302Z,29.21
2019-05-06T08:23:03.260Z,29.52
2019-05-06T08:25:44.322Z,29.78
2019-05-06T08:28:16.180Z,29.60
2019-05-06T08:30:48.033Z,28.64
2019-05-06T08:33:21.866Z,27.78
2019-05-06T08:36:08.890Z,28.25
2019-05-06T08:38:28.175Z,27.05
2019-05-06T08:41:02.633Z,26.53
2019-05-06T08:43:33.945Z,26.63
2019-05-06T08:46:05.930Z,24.13
2019-05-06T08:48:38.197Z,24.73
2019-05-06T08:51:16.361Z,25.40
2019-05-06T08:53:53.381Z,25.02
2019-05-06T08:56:25.958Z,24.53
2019-05-06T08:58:57.828Z,24.17
2019-05-06T09:01:54.554Z,24.99
2019-05-06T09:04:26.477Z,24.16
2019-05-06T09:06:58.703Z,23.67
2019-05-06T09:09:32.602Z,23.38
2019-05-06T09:12:04.834Z,23.25
2019-05-06T09:14:36.670Z,23.12
2019-05-06T09:17:08.588Z,22.39
2019-05-06T09:19:42.517Z,22.50
2019-05-06T09:22:13.914Z,22.67
2019-05-06T09:24:45.732Z,22.49
2019-05-06T09:27:41.996Z,22.54
2019-05-06T09:30:22.784Z,22.75
2019-05-06T09:32:53.490Z,21.87
2019-05-06T09:35:25.243Z,21.54
2019-05-06T09:37:57.391Z,21.10
2019-05-06T09:40:29.160Z,21.87
2019-05-06T09:43:04.681Z,22.46
2019-05-06T09:45:34.950Z,21.53
2019-05-06T09:48:13.028Z,20.28
2019-05-06T09:50:46.909Z,20.89
2019-05-06T09:53:37.945Z,20.99
2019-05-06T09:56:42.687Z,20.72
2019-05-06T09:59:14.755Z,20.34
2019-05-06T10:01:47.890Z,20.72
2019-05-06T10:04:19.833Z,20.09
2019-05-06T10:06:57.383Z,20.18
2019-05-06T10:09:26.681Z,20.48
2019-05-06T10:11:58.508Z,20.47
2019-05-06T10:14:32.192Z,20.43
2019-05-06T10:17:04.602Z,20.74
2019-05-06T10:19:37.342Z,20.80
2019-05-06T10:22:09.173Z,20.36
2019-05-06T10:24:43.156Z,20.61
2019-05-06T10:27:14.626Z,21.27
2019-05-06T10:30:05.561Z,21.00
2019-05-06T10:32:45.998Z,20.79
2019-05-06T10:35:18.789Z,21.56
2019-05-06T10:38:14.993Z,21.31
2019-05-06T10:41:00.877Z,20.86
2019-05-06T10:43:54.489Z,21.11
2019-05-06T10:46:26.667Z,21.32
2019-05-06T10:48:58.429Z,21.25
2019-05-06T10:51:38.433Z,21.23
2019-05-06T10:54:12.250Z,21.50
2019-05-06T10:56:56.916Z,21.07
2019-05-06T10:59:27.195Z,21.36
2019-05-06T11:02:05.448Z,21.27
2019-05-06T11:04:36.423Z,21.51
2019-05-06T11:07:08.283Z,20.01
2019-05-06T11:09:42.618Z,21.21
2019-05-06T11:12:14.143Z,21.44
2019-05-06T11:14:46.212Z,20.37
2019-05-06T11:17:18.067Z,19.85
2019-05-06T11:19:49.927Z,20.49
2019-05-06T11:22:24.615Z,20.67
2019-05-06T11:24:55.275Z,20.82
2019-05-06T11:27:32.085Z,20.70
2019-05-06T11:30:02.485Z,20.44
2019-05-06T11:32:44.382Z,20.25
2019-05-06T11:35:32.503Z,19.68
2019-05-06T11:38:08.491Z,19.92
2019-05-06T11:40:42.106Z,19.46
2019-05-06T11:43:14.059Z,19.43
2019-05-06T11:45:45.886Z,19.52
2019-05-06T11:48:17.940Z,19.52
2019-05-06T11:50:51.431Z,19.69
2019-05-06T11:53:23.451Z,19.74
2019-05-06T11:55:55.284Z,19.07
2019-05-06T11:58:47.271Z,19.19
2019-05-06T12:01:23.376Z,18.16
2019-05-06T12:03:55.523Z,18.94
2019-05-06T12:06:27.314Z,18.66
2019-05-06T12:08:59.395Z,18.82
2019-05-06T12:11:31.225Z,18.84
2019-05-06T12:14:03.325Z,18.87
2019-05-06T12:16:35.167Z,18.94
2019-05-06T12:19:07.250Z,17.93
2019-05-06T12:21:39.053Z,17.56
2019-05-06T12:24:12.206Z,18.10
2019-05-06T12:26:44.408Z,18.39
2019-05-06T12:29:16.248Z,18.04
2019-05-06T12:31:52.975Z,17.94
2019-05-06T12:34:25.251Z,18.25
2019-05-06T12:36:59.538Z,18.82
2019-05-06T12:39:33.262Z,17.67
2019-05-06T12:42:30.145Z,18.09
2019-05-06T12:45:23.932Z,17.27
2019-05-06T12:48:17.597Z,16.47
2019-05-06T12:50:52.580Z,15.81
2019-05-06T12:53:24.390Z,15.15
2019-05-06T12:55:56.661Z,14.55
2019-05-06T12:58:28.512Z,13.87
2019-05-06T13:01:03.827Z,13.55
2019-05-06T13:03:34.956Z,14.00
2019-05-06T13:06:09.018Z,13.72
2019-05-06T13:08:56.667Z,12.71
2019-05-06T13:11:15.357Z,11.69
2019-05-06T13:13:57.545Z,10.91
2019-05-06T13:16:22.861Z,10.91
2019-05-06T13:18:55.068Z,10.83
2019-05-06T13:21:27.453Z,10.61
2019-05-06T13:24:04.622Z,10.28
2019-05-06T13:26:36.847Z,10.28
2019-05-06T13:29:22.942Z,9.84
2019-05-06T13:31:55.006Z,8.95
2019-05-06T13:34:26.931Z,8.07
2019-05-06T13:36:59.347Z,7.46
2019-05-06T13:39:32.840Z,6.55
2019-05-06T13:42:05.077Z,6.05
2019-05-06T13:44:37.013Z,5.96
2019-05-06T13:47:12.165Z,6.23
2019-05-06T13:49:54.113Z,6.78
2019-05-06T13:52:29.359Z,6.99
2019-05-06T13:55:02.595Z,7.16
2019-05-06T13:57:34.923Z,6.80
2019-05-06T14:00:07.866Z,6.76
2019-05-06T14:02:48.712Z,6.05
2019-05-06T14:05:21.249Z,5.96
2019-05-06T14:07:53.620Z,6.30
2019-05-06T14:10:25.405Z,6.82
2019-05-06T14:12:57.755Z,6.95
2019-05-06T14:15:29.584Z,6.88
2019-05-06T14:18:02.593Z,7.61
2019-05-06T14:20:35.021Z,7.75
2019-05-06T14:23:07.759Z,8.40
2019-05-06T14:26:04.136Z,9.03
2019-05-06T14:28:50.103Z,9.28
2019-05-06T14:31:25.997Z,10.41
2019-05-06T14:33:58.509Z,11.83
2019-05-06T14:36:32.159Z,12.96
2019-05-06T14:39:07.211Z,13.62
2019-05-06T14:41:44.611Z,14.57
2019-05-06T14:44:15.376Z,15.20
2019-05-06T14:47:06.218Z,14.99
2019-05-06T14:49:38.203Z,14.61
2019-05-06T14:52:12.882Z,15.06
2019-05-06T14:54:56.114Z,15.51
2019-05-06T14:57:27.969Z,14.76
2019-05-06T14:59:59.951Z,13.78
2019-05-06T15:02:33.778Z,13.10
2019-05-06T15:05:06.564Z,12.25
2019-05-06T15:07:38.369Z,12.32
2019-05-06T15:10:20.464Z,12.24
2019-05-06T15:12:44.966Z,12.61
2019-05-06T15:15:17.345Z,13.04
2019-05-06T15:17:49.164Z,14.46
2019-05-06T15:20:22.608Z,15.31
2019-05-06T15:22:54.744Z,14.82
2019-05-06T15:25:27.029Z,14.69
2019-05-06T15:27:59.034Z,15.06
2019-05-06T15:30:38.574Z,15.81
2019-05-06T15:33:13.314Z,16.99
2019-05-06T15:36:02.392Z,17.95
2019-05-06T15:38:34.762Z,18.50
2019-05-06T15:41:07.037Z,18.91
2019-05-06T15:43:39.264Z,19.42
2019-05-06T15:46:12.486Z,19.90
2019-05-06T15:48:44.337Z,19.79
2019-05-06T15:51:19.260Z,20.07
2019-05-06T15:53:52.936Z,20.07
2019-05-06T15:56:24.928Z,20.56
2019-05-06T15:58:56.797Z,20.59
2019-05-06T16:01:29.082Z,20.78
2019-05-06T16:04:00.862Z,21.31
2019-05-06T16:06:33.380Z,21.18
2019-05-06T16:09:06.651Z,21.10
2019-05-06T16:11:41.910Z,21.72
2019-05-06T16:14:14.095Z,21.54
2019-05-06T16:16:46.255Z,21.80
2019-05-06T16:19:19.133Z,22.20
2019-05-06T16:21:52.407Z,22.39
2019-05-06T16:24:29.991Z,22.96
2019-05-06T16:27:03.099Z,22.83
2019-05-06T16:29:38.250Z,22.89
2019-05-06T16:32:10.967Z,23.19
2019-05-06T16:34:44.192Z,23.33
2019-05-06T16:37:16.286Z,23.33
2019-05-06T16:39:48.193Z,23.68
2019-05-06T16:42:22.467Z,23.54
2019-05-06T16:44:54.760Z,23.54
2019-05-06T16:47:39.487Z,23.49
2019-05-06T16:50:15.271Z,23.55
2019-05-06T16:52:47.250Z,23.66
2019-05-06T16:55:24.562Z,24.06
2019-05-06T16:58:03.245Z,23.71
2019-05-06T17:00:37.053Z,23.91
2019-05-06T17:03:15.980Z,23.95
2019-05-06T17:06:05.411Z,23.78
2019-05-06T17:08:37.735Z,23.62
2019-05-06T17:11:26.128Z,23.94
2019-05-06T17:13:44.807Z,23.96
2019-05-06T17:16:16.811Z,23.99
2019-05-06T17:18:49.073Z,23.96
2019-05-06T17:21:22.239Z,24.32
2019-05-06T17:23:54.612Z,24.29
2019-05-06T17:26:26.554Z,24.54
2019-05-06T17:29:04.260Z,24.87
2019-05-06T17:31:58.270Z,25.21
2019-05-06T17:34:33.517Z,25.28
2019-05-06T17:37:15.110Z,25.46
2019-05-06T17:39:48.355Z,25.11
2019-05-06T17:42:22.550Z,25.64
2019-05-06T17:44:54.262Z,25.76
2019-05-06T17:47:52.870Z,25.68
2019-05-06T17:50:24.459Z,25.83
2019-05-06T17:52:57.541Z,26.02
2019-05-06T17:55:29.753Z,26.00
2019-05-06T17:58:02.501Z,26.08
2019-05-06T18:00:35.017Z,26.10
2019-05-06T18:03:06.962Z,26.36
2019-05-06T18:05:39.355Z,26.61
2019-05-06T18:08:12.792Z,26.56
2019-05-06T18:10:44.924Z,26.56
2019-05-06T18:13:16.907Z,26.71
2019-05-06T18:15:50.507Z,27.01
2019-05-06T18:18:28.443Z,26.90
2019-05-06T18:20:56.723Z,27.21
2019-05-06T18:23:28.968Z,27.29
2019-05-06T18:26:03.119Z,27.28
2019-05-06T18:28:34.906Z,27.79
2019-05-06T18:31:07.150Z,27.99
2019-05-06T18:33:39.346Z,27.82
2019-05-06T18:36:13.008Z,28.11
2019-05-06T18:38:45.303Z,28.02
2019-05-06T18:41:17.305Z,28.22
2019-05-06T18:43:50.287Z,28.63
2019-05-06T18:46:22.771Z,28.69
2019-05-06T18:48:55.167Z,28.97
2019-05-06T18:51:27.857Z,29.16
2019-05-06T18:54:00.388Z,29.41
2019-05-06T18:56:35.135Z,29.92
2019-05-06T18:59:12.181Z,30.07
2019-05-06T19:01:45.270Z,30.04
2019-05-06T19:04:45.278Z,29.96
2019-05-06T19:07:17.639Z,29.86
2019-05-06T19:10:02.997Z,29.93
2019-05-06T19:12:40.410Z,30.16
2019-05-06T19:15:09.649Z,30.24
2019-05-06T19:17:44.363Z,30.27
2019-05-06T19:20:16.610Z,30.39
2019-05-06T19:22:49.145Z,30.46
2019-05-06T19:25:22.827Z,31.09
2019-05-06T19:27:55.201Z,31.05
2019-05-06T19:30:27.297Z,31.11
2019-05-06T19:32:59.391Z,31.40
2019-05-06T19:35:36.833Z,31.44
2019-05-06T19:38:06.475Z,31.38
2019-05-06T19:40:38.529Z,30.93
2019-05-06T19:43:12.367Z,30.87
2019-05-06T19:45:45.414Z,31.17
2019-05-06T19:48:18.104Z,31.10
2019-05-06T19:50:52.248Z,31.32
2019-05-06T19:53:24.391Z,31.68
2019-05-06T19:55:56.708Z,31.73
2019-05-06T19:58:28.561Z,31.91
2019-05-06T20:01:02.304Z,31.93
2019-05-06T20:03:34.767Z,31.99
2019-05-06T20:06:34.645Z,32.18
2019-05-06T20:09:36.176Z,32.15
2019-05-06T20:12:12.419Z,32.33
2019-05-06T20:14:44.823Z,32.64
2019-05-06T20:17:17.023Z,32.82
2019-05-06T20:19:51.854Z,32.84
2019-05-06T20:22:23.886Z,32.98
2019-05-06T20:24:56.263Z,32.97
2019-05-06T20:27:28.382Z,33.69
2019-05-06T20:30:03.258Z,33.30
2019-05-06T20:32:35.133Z,33.23
2019-05-06T20:35:08.777Z,33.62
2019-05-06T20:37:42.583Z,34.04
2019-05-06T20:40:15.835Z,34.05
2019-05-06T20:42:48.339Z,34.18
2019-05-06T20:45:22.320Z,34.05
2019-05-06T20:47:55.737Z,34.11
2019-05-06T20:50:28.004Z,34.30
2019-05-06T20:53:00.130Z,34.47
2019-05-06T20:55:35.757Z,34.77
2019-05-06T20:58:08.955Z,34.82
2019-05-06T21:00:43.013Z,34.71
2019-05-06T21:03:15.605Z,34.76
2019-05-06T21:05:48.542Z,34.62
2019-05-06T21:08:22.131Z,35.05
2019-05-06T21:10:54.736Z,35.07
2019-05-06T21:13:33.047Z,35.20
2019-05-06T21:16:02.224Z,35.21
2019-05-06T21:18:34.851Z,35.27
2019-05-06T21:21:07.824Z,35.28
2019-05-06T21:23:39.792Z,35.41
2019-05-06T21:26:13.644Z,35.54
2019-05-06T21:28:46.442Z,35.86
2019-05-06T21:31:19.030Z,35.80
2019-05-06T21:33:52.228Z,35.70
2019-05-06T21:36:25.030Z,35.91
2019-05-06T21:38:56.985Z,36.07
2019-05-06T21:41:29.141Z,36.10
2019-05-06T21:44:02.415Z,36.13
2019-05-06T21:46:34.902Z,36.12
2019-05-06T21:49:06.851Z,36.37
2019-05-06T21:51:39.128Z,36.42
2019-05-06T21:54:12.587Z,36.31
2019-05-06T21:56:46.112Z,36.69
2019-05-06T21:59:18.325Z,36.53
2019-05-06T22:01:52.063Z,36.70
2019-05-06T22:04:24.195Z,36.85
2019-05-06T22:06:56.682Z,36.76
2019-05-06T22:09:28.484Z,37.20
2019-05-06T22:12:02.447Z,37.24
2019-05-06T22:14:33.983Z,37.22
2019-05-06T22:17:07.506Z,37.33
2019-05-06T22:19:39.329Z,37.56
2019-05-06T22:22:14.616Z,37.64
2019-05-06T22:24:48.168Z,37.56
2019-05-06T22:27:21.972Z,37.72
2019-05-06T22:29:53.624Z,37.90
2019-05-06T22:32:25.708Z,37.98
2019-05-06T22:34:57.530Z,37.97
2019-05-06T22:37:29.842Z,38.14
2019-05-06T22:40:02.296Z,38.32
2019-05-06T22:42:34.399Z,38.49
2019-05-06T22:45:07.086Z,38.40
2019-05-06T22:47:39.125Z,38.61
2019-05-06T22:50:13.140Z,38.78
2019-05-06T22:52:45.942Z,38.78
2019-05-06T22:55:17.804Z,38.78
2019-05-06T22:57:49.852Z,38.93
2019-05-06T23:00:27.366Z,39.20
2019-05-06T23:03:03.785Z,39.22
2019-05-06T23:05:35.710Z,39.37
2019-05-06T23:08:07.761Z,39.62
2019-05-06T23:10:42.112Z,39.58
2019-05-06T23:13:13.427Z,40.03
2019-05-06T23:15:45.221Z,40.10
2019-05-06T23:18:17.269Z,40.51
2019-05-06T23:20:49.053Z,40.37
2019-05-06T23:23:22.431Z,40.47
2019-05-06T23:26:13.022Z,40.64
2019-05-06T23:28:44.994Z,40.82
2019-05-06T23:31:18.002Z,41.02
2019-05-06T23:33:49.948Z,41.23
2019-05-06T23:36:22.913Z,41.77
2019-05-06T23:40:03.493Z,41.81
2019-05-06T23:43:30.278Z,41.85
2019-05-06T23:46:55.836Z,42.08
2019-05-06T23:50:22.956Z,42.29
2019-05-06T23:53:48.141Z,42.74
2019-05-06T23:56:43.916Z,42.87
2019-05-06T23:59:18.000Z,43.02
